»·PEaware :: SWA933 KABQ-KDEN

SWA933 :: KABQ-KDEN

FLIGHT INFORMATION

Flight Status: Arrived
Operator:
Southwest Airlines
More flights by this operator :: More flights under this callsign
Pilot: Ben L. (6391)
Aircraft: BOEING 737-800
(B738)
More flights by this aircraft type
Origin: KABQ Albuquerque Intl Sunport
United States
Destination: KDEN Denver Intl
United States
More flights between these airports :: More routes between these airports
Route: ATOMK3 ATOMK GNDLA TBARR1
File this flight plan on PilotEdge
Remarks:
Altitude:
(Current/Filed)
27,000ft
Speed:
(Current/Filed)
450kts
Departed: 27-Mar-20 06:11 PM
Arrived: 27-Mar-20 07:06 PM
Distance/Time
Traveled:
303nm/0:55
Distance/Time
To Go:
Arrived

Flight Plot

Page will automatically refresh every two minutes.

Flight plan parsing failed; only flown route is shown


Map Options




Map Legend


Flown Route
Filed Route
Departure Airport
Arrival Airport
Navaid (VOR, NDB)
Fix

Horizontal Profiles

Position Reports

Time Latitude Longitude Heading Altitude Ground
Speed
27-Mar-20 17:40 35.046860 -106.615485 271 5325ft 0kts
27-Mar-20 17:41 35.046860 -106.615485 271 5325ft 0kts
27-Mar-20 17:42 35.046860 -106.615485 271 5325ft 0kts
27-Mar-20 17:43 35.046860 -106.615485 271 5325ft 0kts
27-Mar-20 17:44 35.046860 -106.615485 271 5325ft 0kts
27-Mar-20 17:45 35.046860 -106.615485 271 5325ft 0kts
27-Mar-20 17:46 35.046860 -106.615485 271 5325ft 0kts
27-Mar-20 17:47 35.046860 -106.615485 271 5325ft 0kts
27-Mar-20 17:48 35.046860 -106.615485 271 5325ft 0kts
27-Mar-20 17:49 35.046860 -106.615485 271 5325ft 0kts
27-Mar-20 17:50 35.046860 -106.615485 271 5325ft 0kts
27-Mar-20 17:51 35.046860 -106.615485 271 5325ft 0kts
27-Mar-20 17:52 35.046860 -106.615485 271 5325ft 0kts
27-Mar-20 17:53 35.046860 -106.615485 271 5325ft 0kts
27-Mar-20 17:54 35.046860 -106.615485 271 5325ft 0kts
27-Mar-20 17:55 35.046860 -106.615485 271 5325ft 0kts
27-Mar-20 17:56 35.046861 -106.615834 270 5325ft 2kts
27-Mar-20 17:57 35.046593 -106.616414 196 5325ft 6kts
27-Mar-20 17:58 35.045828 -106.611537 89 5325ft 16kts
27-Mar-20 17:59 35.045757 -106.606888 89 5325ft 15kts
27-Mar-20 18:00 35.045758 -106.600496 90 5333ft 16kts
27-Mar-20 18:01 35.045828 -106.593582 90 5341ft 29kts
27-Mar-20 18:02 35.045772 -106.583972 90 5353ft 24kts
27-Mar-20 18:03 35.045712 -106.578144 90 5365ft 9kts
27-Mar-20 18:04 35.045714 -106.576972 88 5368ft 0kts
27-Mar-20 18:05 35.045724 -106.576867 81 5368ft 3kts
27-Mar-20 18:07 35.045293 -106.575707 157 5368ft 0kts
27-Mar-20 18:08 35.045196 -106.575667 164 5368ft 0kts
27-Mar-20 18:09 35.045168 -106.575661 169 5368ft 0kts
27-Mar-20 18:10 35.044112 -106.576166 254 5368ft 7kts
27-Mar-20 18:11 35.044335 -106.611951 271 6408ft 146kts
27-Mar-20 18:12 35.040023 -106.667382 266 7776ft 205kts
27-Mar-20 18:13 35.037273 -106.747677 267 9940ft 259kts
27-Mar-20 18:14 35.072762 -106.811451 353 13056ft 296kts
27-Mar-20 18:15 35.153832 -106.802046 343 15787ft 307kts
27-Mar-20 18:16 35.242327 -106.821380 341 17540ft 354kts
27-Mar-20 18:17 35.344216 -106.843557 341 19477ft 386kts
27-Mar-20 18:18 35.451926 -106.866164 344 21533ft 408kts
27-Mar-20 18:19 35.567081 -106.883309 344 23383ft 427kts
27-Mar-20 18:20 35.687601 -106.901651 344 25061ft 444kts
27-Mar-20 18:21 35.812609 -106.920877 344 26556ft 460kts
27-Mar-20 18:22 35.942945 -106.932247 355 26920ft 486kts
27-Mar-20 18:22 36.056472 -106.918309 0 26917ft 495kts
27-Mar-20 18:24 36.210711 -106.889693 1 26904ft 497kts
27-Mar-20 18:25 36.340130 -106.863564 2 26874ft 497kts
27-Mar-20 18:25 36.453883 -106.840130 1 26862ft 496kts
27-Mar-20 18:26 36.589870 -106.811893 1 26861ft 498kts
27-Mar-20 18:28 36.749059 -106.777085 7 26865ft 503kts
27-Mar-20 18:28 36.860938 -106.734996 10 26865ft 506kts
27-Mar-20 18:29 36.994945 -106.680939 11 26867ft 506kts
27-Mar-20 18:30 37.117494 -106.630588 12 26862ft 502kts
27-Mar-20 18:31 37.249394 -106.576011 12 26860ft 498kts
27-Mar-20 18:32 37.378668 -106.522286 12 26855ft 499kts
27-Mar-20 18:33 37.509286 -106.467776 12 26845ft 499kts
27-Mar-20 18:34 37.640810 -106.412688 12 26834ft 500kts
27-Mar-20 18:35 37.772571 -106.357280 12 26823ft 500kts
27-Mar-20 18:36 37.895655 -106.305436 13 26805ft 501kts
27-Mar-20 18:37 38.027678 -106.249567 13 26805ft 500kts
27-Mar-20 18:38 38.152961 -106.196320 13 26798ft 500kts
27-Mar-20 18:39 38.274334 -106.144537 13 26806ft 499kts
27-Mar-20 18:40 38.408242 -106.087180 13 26852ft 495kts
27-Mar-20 18:41 38.538462 -106.031207 13 26857ft 494kts
27-Mar-20 18:42 38.666442 -105.975898 13 26830ft 470kts
27-Mar-20 18:43 38.790295 -105.922246 13 26813ft 450kts
27-Mar-20 18:44 38.893663 -105.845977 40 25656ft 434kts
27-Mar-20 18:45 38.974256 -105.736429 44 23947ft 412kts
27-Mar-20 18:46 39.046334 -105.628029 44 21810ft 383kts
27-Mar-20 18:47 39.108222 -105.532518 45 20311ft 390kts
27-Mar-20 18:48 39.178806 -105.421719 46 18888ft 402kts
27-Mar-20 18:49 39.246069 -105.314250 46 17767ft 357kts
27-Mar-20 18:50 39.287875 -105.214589 72 17087ft 336kts
27-Mar-20 18:51 39.303356 -105.096217 77 15651ft 331kts
27-Mar-20 18:52 39.318374 -104.982299 74 14545ft 304kts
27-Mar-20 18:53 39.338596 -104.883622 79 14015ft 267kts
27-Mar-20 18:54 39.359238 -104.793174 75 13066ft 261kts
27-Mar-20 18:55 39.382535 -104.715624 65 12986ft 198kts
27-Mar-20 18:56 39.428931 -104.668138 17 12724ft 237kts
27-Mar-20 18:57 39.494024 -104.669228 340 11986ft 230kts
27-Mar-20 18:58 39.553488 -104.666123 7 10923ft 206kts
27-Mar-20 18:59 39.605787 -104.663518 4 9888ft 183kts
27-Mar-20 19:00 39.653627 -104.662721 3 8948ft 165kts
27-Mar-20 19:01 39.698413 -104.662149 2 8033ft 158kts
27-Mar-20 19:02 39.741666 -104.661605 1 7166ft 154kts
27-Mar-20 19:03 39.784108 -104.661089 0 6334ft 151kts
27-Mar-20 19:04 39.825772 -104.660201 358 5542ft 147kts
27-Mar-20 19:05 39.851735 -104.660906 338 5395ft 27kts
27-Mar-20 19:06 39.853646 -104.662046 335 5394ft 15kts
27-Mar-20 19:07 39.855867 -104.666059 270 5381ft 15kts
27-Mar-20 19:08 39.857421 -104.668964 333 5381ft 5kts
27-Mar-20 19:09 39.857927 -104.669096 358 5381ft 0kts

Navigation Log

Ident Type
Flight plan parsing failed, navigation log unavailable